createdAt,value
2022-12-04T00:00:40.680Z,1.53
2022-12-04T00:03:08.816Z,1.51
2022-12-04T00:05:36.926Z,1.48
2022-12-04T00:08:05.375Z,1.43
2022-12-04T00:10:33.429Z,1.39
2022-12-04T00:13:02.938Z,1.33
2022-12-04T00:15:31.133Z,1.26
2022-12-04T00:17:59.509Z,1.17
2022-12-04T00:20:28.067Z,1.12
2022-12-04T00:22:56.149Z,1.05
2022-12-04T00:25:24.540Z,1.00
2022-12-04T00:27:52.608Z,0.94
2022-12-04T00:30:22.277Z,0.88
2022-12-04T00:32:50.368Z,0.80
2022-12-04T00:35:18.892Z,0.76
2022-12-04T00:37:47.066Z,0.75
2022-12-04T00:40:15.697Z,0.73
2022-12-04T00:42:44.190Z,0.71
2022-12-04T00:45:12.802Z,0.68
2022-12-04T00:47:42.456Z,0.69
2022-12-04T00:50:11.256Z,0.68
2022-12-04T00:52:39.383Z,0.65
2022-12-04T00:55:08.260Z,0.66
2022-12-04T00:57:36.655Z,0.71
2022-12-04T01:00:05.155Z,0.77
2022-12-04T01:02:33.260Z,0.78
2022-12-04T01:05:04.009Z,0.86
2022-12-04T01:07:32.528Z,0.90
2022-12-04T01:10:00.668Z,0.96
2022-12-04T01:12:29.009Z,0.95
2022-12-04T01:14:57.073Z,1.02
2022-12-04T01:17:25.247Z,1.08
2022-12-04T01:19:53.938Z,1.10
2022-12-04T01:22:23.811Z,1.12
2022-12-04T01:24:52.005Z,1.18
2022-12-04T01:27:20.089Z,1.17
2022-12-04T01:29:48.153Z,1.21
2022-12-04T01:32:16.549Z,1.23
2022-12-04T01:34:44.640Z,1.25
2022-12-04T01:37:12.792Z,1.26
2022-12-04T01:39:42.443Z,1.25
2022-12-04T01:42:12.861Z,1.22
2022-12-04T01:44:43.303Z,1.20
2022-12-04T01:47:12.050Z,1.23
2022-12-04T01:49:42.183Z,1.27
2022-12-04T01:52:13.289Z,1.29
2022-12-04T01:54:45.104Z,1.29
2022-12-04T01:57:14.583Z,1.33
2022-12-04T01:59:44.311Z,1.38
2022-12-04T02:02:14.681Z,1.42
2022-12-04T02:04:43.774Z,1.43
2022-12-04T02:07:11.904Z,1.45
2022-12-04T02:09:40.906Z,1.48
2022-12-04T02:12:14.951Z,1.51
2022-12-04T02:14:46.000Z,1.50
2022-12-04T02:17:20.327Z,1.59
2022-12-04T02:20:04.384Z,1.60
2022-12-04T02:22:46.804Z,1.62
2022-12-04T02:25:21.294Z,1.66
2022-12-04T02:27:56.860Z,1.65
2022-12-04T02:30:25.032Z,1.66
2022-12-04T02:33:00.871Z,1.70
2022-12-04T02:35:31.149Z,1.74
2022-12-04T02:38:04.755Z,1.78
2022-12-04T02:40:35.570Z,1.78
2022-12-04T02:43:10.348Z,1.76
2022-12-04T02:45:41.820Z,1.76
2022-12-04T02:48:10.648Z,1.82
2022-12-04T02:50:41.698Z,1.83
2022-12-04T02:53:11.870Z,1.81
2022-12-04T02:55:41.286Z,1.81
2022-12-04T02:58:13.353Z,1.80
2022-12-04T03:00:42.854Z,1.86
2022-12-04T03:03:12.648Z,1.85
2022-12-04T03:05:42.613Z,1.86
2022-12-04T03:08:13.342Z,1.88
2022-12-04T03:10:43.003Z,1.84
2022-12-04T03:13:15.447Z,1.81
2022-12-04T03:15:46.489Z,1.72
2022-12-04T03:18:17.771Z,1.70
2022-12-04T03:20:48.697Z,1.66
2022-12-04T03:23:19.905Z,1.59
2022-12-04T03:25:52.969Z,1.60
2022-12-04T03:28:35.475Z,1.59
2022-12-04T03:31:05.309Z,1.55
2022-12-04T03:33:36.266Z,1.48
2022-12-04T03:36:09.690Z,1.46
2022-12-04T03:38:40.637Z,1.41
2022-12-04T03:41:15.278Z,1.36
2022-12-04T03:43:50.674Z,1.30
2022-12-04T03:46:25.181Z,1.22
2022-12-04T03:48:55.355Z,1.16
2022-12-04T03:51:27.948Z,1.09
2022-12-04T03:53:58.284Z,1.01
2022-12-04T03:56:30.121Z,0.91
2022-12-04T03:59:02.180Z,0.81
2022-12-04T04:01:37.535Z,0.76
2022-12-04T04:04:07.748Z,0.72
2022-12-04T04:06:39.360Z,0.71
2022-12-04T04:09:10.647Z,0.69
2022-12-04T04:11:41.822Z,0.70
2022-12-04T04:14:31.267Z,0.64
2022-12-04T04:17:18.863Z,0.58
2022-12-04T04:20:06.782Z,0.54
2022-12-04T04:22:56.153Z,0.51
2022-12-04T04:25:26.394Z,0.41
2022-12-04T04:27:55.406Z,0.30
2022-12-04T04:30:25.167Z,0.24
2022-12-04T04:32:57.809Z,0.16
2022-12-04T04:35:29.450Z,0.09
2022-12-04T04:38:02.841Z,0.01
2022-12-04T04:40:36.815Z,-0.03
2022-12-04T04:43:08.595Z,-0.08
2022-12-04T04:45:41.214Z,-0.12
2022-12-04T04:48:11.185Z,-0.13
2022-12-04T04:50:40.300Z,-0.12
2022-12-04T04:53:11.014Z,-0.09
2022-12-04T04:55:39.727Z,-0.01
2022-12-04T04:58:09.377Z,0.05
2022-12-04T05:00:39.866Z,0.09
2022-12-04T05:03:08.060Z,0.11
2022-12-04T05:05:36.339Z,0.10
2022-12-04T05:08:04.482Z,0.09
2022-12-04T05:10:32.797Z,0.12
2022-12-04T05:13:01.052Z,0.13
2022-12-04T05:15:29.204Z,0.12
2022-12-04T05:17:58.699Z,0.15
2022-12-04T05:20:26.864Z,0.12
2022-12-04T05:22:55.347Z,0.10
2022-12-04T05:25:23.492Z,0.04
2022-12-04T05:27:51.667Z,-0.01
2022-12-04T05:30:19.960Z,0.03
2022-12-04T05:32:48.087Z,0.06
2022-12-04T05:35:18.811Z,0.07
2022-12-04T05:37:47.568Z,0.08
2022-12-04T05:40:15.801Z,0.06
2022-12-04T05:42:44.082Z,-0.03
2022-12-04T05:45:12.443Z,-0.10
2022-12-04T05:47:40.765Z,-0.09
2022-12-04T05:50:09.408Z,-0.10
2022-12-04T05:52:39.186Z,-0.09
2022-12-04T05:55:07.634Z,-0.09
2022-12-04T05:57:35.745Z,-0.06
2022-12-04T06:00:03.991Z,-0.09
2022-12-04T06:02:39.262Z,-0.09
2022-12-04T06:05:08.158Z,-0.12
2022-12-04T06:07:36.790Z,-0.12
2022-12-04T06:10:07.389Z,-0.12
2022-12-04T06:12:35.706Z,-0.15
2022-12-04T06:15:03.990Z,-0.14
2022-12-04T06:17:32.077Z,-0.16
2022-12-04T06:20:00.757Z,-0.18
2022-12-04T06:22:29.018Z,-0.16
2022-12-04T06:24:57.147Z,-0.14
2022-12-04T06:27:28.205Z,-0.18
2022-12-04T06:29:57.716Z,-0.21
2022-12-04T06:32:26.352Z,-0.16
2022-12-04T06:34:55.422Z,-0.10
2022-12-04T06:37:24.643Z,-0.05
2022-12-04T06:39:53.020Z,0.00
2022-12-04T06:42:21.529Z,0.02
2022-12-04T06:44:51.700Z,0.03
2022-12-04T06:47:19.855Z,0.00
2022-12-04T06:49:50.628Z,-0.04
2022-12-04T06:52:19.110Z,-0.07
2022-12-04T06:54:47.237Z,-0.10
2022-12-04T06:57:15.318Z,-0.12
2022-12-04T06:59:43.439Z,-0.14
2022-12-04T07:02:13.313Z,-0.13
2022-12-04T07:04:41.449Z,-0.15
2022-12-04T07:07:10.096Z,-0.19
2022-12-04T07:09:38.719Z,-0.20
2022-12-04T07:12:07.481Z,-0.19
2022-12-04T07:14:35.589Z,-0.20
2022-12-04T07:17:03.733Z,-0.27
2022-12-04T07:19:33.338Z,-0.35
2022-12-04T07:22:01.337Z,-0.33
2022-12-04T07:24:29.653Z,-0.27
2022-12-04T07:26:57.838Z,-0.22
2022-12-04T07:29:26.050Z,-0.19
2022-12-04T07:31:54.637Z,-0.17
2022-12-04T07:34:22.779Z,-0.17
2022-12-04T07:36:52.567Z,-0.16
2022-12-04T07:39:20.572Z,-0.18
2022-12-04T07:41:48.693Z,-0.20
2022-12-04T07:44:16.709Z,-0.24
2022-12-04T07:46:45.136Z,-0.24
2022-12-04T07:49:13.789Z,-0.28
2022-12-04T07:51:41.909Z,-0.34
2022-12-04T07:54:11.434Z,-0.39
2022-12-04T07:56:39.440Z,-0.41
2022-12-04T07:59:07.960Z,-0.47
2022-12-04T08:01:36.028Z,-0.56
2022-12-04T08:04:04.591Z,-0.63
2022-12-04T08:06:34.228Z,-0.62
2022-12-04T08:09:07.737Z,-0.61
2022-12-04T08:11:39.535Z,-0.63
2022-12-04T08:14:09.050Z,-0.64
2022-12-04T08:16:37.556Z,-0.69
2022-12-04T08:19:05.629Z,-0.71
2022-12-04T08:21:33.973Z,-0.76
2022-12-04T08:24:02.653Z,-0.72
2022-12-04T08:26:31.808Z,-0.71
2022-12-04T08:29:02.919Z,-0.70
2022-12-04T08:31:33.088Z,-0.69
2022-12-04T08:34:02.852Z,-0.53
2022-12-04T08:36:31.025Z,-0.29
2022-12-04T08:38:59.463Z,-0.04
2022-12-04T08:41:29.027Z,0.20
2022-12-04T08:43:58.144Z,0.33
2022-12-04T08:46:28.832Z,0.43
2022-12-04T08:48:57.907Z,0.58
2022-12-04T08:51:27.454Z,0.73
2022-12-04T08:54:13.701Z,0.86
2022-12-04T08:56:55.249Z,0.96
2022-12-04T08:59:24.736Z,1.09
2022-12-04T09:01:54.939Z,1.19
2022-12-04T09:04:23.286Z,1.28
2022-12-04T09:06:52.019Z,1.33
2022-12-04T09:09:21.099Z,1.40
2022-12-04T09:11:49.307Z,1.46
2022-12-04T09:14:19.304Z,1.49
2022-12-04T09:16:47.531Z,1.51
2022-12-04T09:19:17.648Z,1.55
2022-12-04T09:21:46.122Z,1.61
2022-12-04T09:24:14.652Z,1.65
2022-12-04T09:26:43.206Z,1.69
2022-12-04T09:29:12.069Z,1.70
2022-12-04T09:31:40.504Z,1.70
2022-12-04T09:34:08.749Z,1.71
2022-12-04T09:36:38.480Z,1.75
2022-12-04T09:39:06.775Z,1.77
2022-12-04T09:42:02.133Z,1.80
2022-12-04T09:44:34.120Z,1.92
2022-12-04T09:47:04.209Z,1.97
2022-12-04T09:49:36.540Z,2.00
2022-12-04T09:52:09.853Z,2.01
2022-12-04T09:54:40.616Z,2.11
2022-12-04T09:57:15.892Z,2.22
2022-12-04T09:59:45.684Z,2.32
2022-12-04T10:02:20.502Z,2.39
2022-12-04T10:04:48.900Z,2.48
2022-12-04T10:07:21.690Z,2.53
2022-12-04T10:09:53.296Z,2.57
2022-12-04T10:12:25.542Z,2.58
2022-12-04T10:15:00.099Z,2.67
2022-12-04T10:17:43.659Z,2.83
2022-12-04T10:20:19.033Z,3.14
2022-12-04T10:22:57.038Z,3.25
2022-12-04T10:25:27.123Z,3.36
2022-12-04T10:27:57.500Z,3.50
2022-12-04T10:30:28.518Z,3.67
2022-12-04T10:33:00.283Z,3.63
2022-12-04T10:35:30.620Z,3.62
2022-12-04T10:38:01.428Z,3.69
2022-12-04T10:40:33.117Z,3.88
2022-12-04T10:43:05.715Z,4.00
2022-12-04T10:45:33.884Z,4.02
2022-12-04T10:48:02.288Z,4.11
2022-12-04T10:50:30.688Z,4.31
2022-12-04T10:53:00.507Z,4.40
2022-12-04T10:55:29.871Z,4.30
2022-12-04T10:57:58.112Z,4.22
2022-12-04T11:00:28.092Z,4.05
2022-12-04T11:02:57.857Z,3.91
2022-12-04T11:05:28.199Z,3.91
2022-12-04T11:07:57.338Z,4.16
2022-12-04T11:10:32.001Z,4.50
2022-12-04T11:13:01.408Z,4.82
2022-12-04T11:15:29.853Z,5.06
2022-12-04T11:18:08.433Z,5.39
2022-12-04T11:20:36.907Z,5.44
2022-12-04T11:23:06.088Z,5.70
2022-12-04T11:25:39.136Z,5.91
2022-12-04T11:28:07.336Z,6.16
2022-12-04T11:30:36.904Z,6.05
2022-12-04T11:33:08.377Z,6.33
2022-12-04T11:35:36.562Z,6.28
2022-12-04T11:38:07.981Z,6.22
2022-12-04T11:40:37.831Z,6.05
2022-12-04T11:43:07.706Z,5.88
2022-12-04T11:45:36.048Z,5.79
2022-12-04T11:48:14.610Z,5.65
2022-12-04T11:50:49.320Z,5.53
2022-12-04T11:53:20.572Z,5.45
2022-12-04T11:55:54.017Z,5.47
2022-12-04T11:58:33.599Z,5.64
2022-12-04T12:01:11.306Z,5.79
2022-12-04T12:03:42.557Z,5.69
2022-12-04T12:06:17.993Z,5.50
2022-12-04T12:08:54.051Z,5.48
2022-12-04T12:11:27.568Z,5.59
2022-12-04T12:14:01.977Z,5.80
2022-12-04T12:16:34.455Z,5.80
2022-12-04T12:19:14.780Z,5.77
2022-12-04T12:21:49.044Z,5.76
2022-12-04T12:24:25.685Z,5.62
2022-12-04T12:27:01.354Z,5.56
2022-12-04T12:29:38.533Z,5.44
2022-12-04T12:32:15.089Z,5.48
2022-12-04T12:34:44.145Z,5.61
2022-12-04T12:37:17.721Z,5.68
2022-12-04T12:39:49.970Z,5.58
2022-12-04T12:42:23.173Z,5.55
2022-12-04T12:44:54.763Z,5.49
2022-12-04T12:47:25.493Z,5.41
2022-12-04T12:49:56.913Z,5.38
2022-12-04T12:52:28.671Z,5.33
2022-12-04T12:55:00.575Z,5.30
2022-12-04T12:57:32.616Z,5.28
2022-12-04T13:00:03.696Z,5.31
2022-12-04T13:02:35.295Z,5.26
2022-12-04T13:05:07.102Z,5.25
2022-12-04T13:07:41.661Z,5.25
2022-12-04T13:10:14.878Z,5.15
2022-12-04T13:12:46.261Z,4.95
2022-12-04T13:15:15.531Z,4.88
2022-12-04T13:17:44.725Z,4.63
2022-12-04T13:20:16.912Z,4.48
2022-12-04T13:22:50.185Z,4.34
2022-12-04T13:25:37.750Z,4.15
2022-12-04T13:28:16.306Z,3.96
2022-12-04T13:30:49.619Z,3.80
2022-12-04T13:33:24.020Z,3.70
2022-12-04T13:36:09.389Z,3.54
2022-12-04T13:38:42.883Z,3.44
2022-12-04T13:41:12.312Z,3.32
2022-12-04T13:43:48.606Z,3.24
2022-12-04T13:46:26.924Z,3.17
2022-12-04T13:48:55.282Z,3.11
2022-12-04T13:51:25.760Z,3.09
2022-12-04T13:54:05.275Z,3.06
2022-12-04T13:56:33.629Z,3.07
2022-12-04T13:59:04.819Z,3.09
2022-12-04T14:01:37.907Z,3.13
2022-12-04T14:04:06.614Z,3.16
2022-12-04T14:06:36.531Z,3.16
2022-12-04T14:09:07.081Z,3.17
2022-12-04T14:11:43.552Z,3.17
2022-12-04T14:14:23.125Z,3.20
2022-12-04T14:16:51.928Z,3.23
2022-12-04T14:19:29.414Z,3.27
2022-12-04T14:21:57.631Z,3.31
2022-12-04T14:24:35.185Z,3.34
2022-12-04T14:27:11.637Z,3.36
2022-12-04T14:29:47.632Z,3.36
2022-12-04T14:32:17.713Z,3.32
2022-12-04T14:34:46.239Z,3.28
2022-12-04T14:37:20.128Z,3.21
2022-12-04T14:39:50.169Z,3.21
2022-12-04T14:42:19.367Z,3.19
2022-12-04T14:44:52.805Z,3.19
2022-12-04T14:47:26.679Z,3.22
2022-12-04T14:50:02.786Z,3.27
2022-12-04T14:52:35.103Z,3.17
2022-12-04T14:55:07.619Z,3.20
2022-12-04T14:57:44.576Z,3.14
2022-12-04T15:00:19.122Z,3.14
2022-12-04T15:02:48.630Z,3.12
2022-12-04T15:05:20.224Z,3.10
2022-12-04T15:07:50.082Z,3.11
2022-12-04T15:10:37.660Z,3.11
2022-12-04T15:13:05.925Z,3.11
2022-12-04T15:15:35.950Z,3.18
2022-12-04T15:18:05.333Z,3.21
2022-12-04T15:20:39.025Z,3.27
2022-12-04T15:23:07.687Z,3.25
2022-12-04T15:25:38.068Z,3.22
2022-12-04T15:28:10.359Z,3.21
2022-12-04T15:30:42.151Z,3.25
2022-12-04T15:33:16.394Z,3.26
2022-12-04T15:35:50.444Z,3.25
2022-12-04T15:38:19.473Z,3.23
2022-12-04T15:40:51.638Z,3.26
2022-12-04T15:43:23.852Z,3.21
2022-12-04T15:45:54.432Z,3.15
2022-12-04T15:48:30.164Z,3.14
2022-12-04T15:50:59.424Z,3.08
2022-12-04T15:53:29.281Z,3.06
2022-12-04T15:55:58.912Z,3.06
2022-12-04T15:58:28.257Z,3.06
2022-12-04T16:00:58.680Z,3.10
2022-12-04T16:03:28.330Z,3.15
2022-12-04T16:06:06.890Z,3.15
2022-12-04T16:08:36.415Z,3.19
2022-12-04T16:11:06.042Z,3.21
2022-12-04T16:13:34.941Z,3.23
2022-12-04T16:16:06.298Z,3.27
2022-12-04T16:18:39.506Z,3.33
2022-12-04T16:21:15.746Z,3.32
2022-12-04T16:23:44.155Z,3.32
2022-12-04T16:26:12.989Z,3.32
2022-12-04T16:28:41.269Z,3.33
2022-12-04T16:31:12.328Z,3.36
2022-12-04T16:33:40.992Z,3.37
2022-12-04T16:36:11.553Z,3.36
2022-12-04T16:38:39.828Z,3.40
2022-12-04T16:41:08.073Z,3.39
2022-12-04T16:43:36.176Z,3.41
2022-12-04T16:46:04.687Z,3.42
2022-12-04T16:48:36.299Z,3.46
2022-12-04T16:51:04.663Z,3.43
2022-12-04T16:53:32.774Z,3.45
2022-12-04T16:56:00.859Z,3.47
2022-12-04T16:58:28.946Z,3.47
2022-12-04T17:00:57.607Z,3.49
2022-12-04T17:03:27.828Z,3.49
2022-12-04T17:05:58.075Z,3.51
2022-12-04T17:08:26.421Z,3.52
2022-12-04T17:10:55.110Z,3.54
2022-12-04T17:13:23.440Z,3.55
2022-12-04T17:15:51.539Z,3.58
2022-12-04T17:18:21.487Z,3.61
2022-12-04T17:20:50.112Z,3.63
2022-12-04T17:23:19.880Z,3.66
2022-12-04T17:25:48.141Z,3.68
2022-12-04T17:28:16.478Z,3.68
2022-12-04T17:30:48.423Z,3.64
2022-12-04T17:33:16.630Z,3.60
2022-12-04T17:35:44.942Z,3.63
2022-12-04T17:38:13.024Z,3.61
2022-12-04T17:40:42.720Z,3.60
2022-12-04T17:43:11.006Z,3.61
2022-12-04T17:45:41.147Z,3.54
2022-12-04T17:48:09.445Z,3.54
2022-12-04T17:50:38.005Z,3.52
2022-12-04T17:53:06.206Z,3.49
2022-12-04T17:55:35.322Z,3.46
2022-12-04T17:58:04.959Z,3.43
2022-12-04T18:00:33.144Z,3.43
2022-12-04T18:03:01.378Z,3.41
2022-12-04T18:05:29.874Z,3.43
2022-12-04T18:07:58.156Z,3.39
2022-12-04T18:10:26.323Z,3.36
2022-12-04T18:12:54.937Z,3.40
2022-12-04T18:15:24.432Z,3.38
2022-12-04T18:17:52.613Z,3.38
2022-12-04T18:20:20.966Z,3.36
2022-12-04T18:22:48.981Z,3.34
2022-12-04T18:25:17.311Z,3.34
2022-12-04T18:27:45.554Z,3.30
2022-12-04T18:30:14.062Z,3.33
2022-12-04T18:32:44.283Z,3.31
2022-12-04T18:35:12.388Z,3.29
2022-12-04T18:37:40.519Z,3.32
2022-12-04T18:40:09.392Z,3.28
2022-12-04T18:42:37.736Z,3.29
2022-12-04T18:45:06.465Z,3.32
2022-12-04T18:47:34.984Z,3.29
2022-12-04T18:50:04.815Z,3.30
2022-12-04T18:52:35.800Z,3.27
2022-12-04T18:55:04.090Z,3.26
2022-12-04T18:57:32.229Z,3.23
2022-12-04T19:00:00.588Z,3.23
2022-12-04T19:02:28.863Z,3.22
2022-12-04T19:04:57.232Z,3.19
2022-12-04T19:07:27.071Z,3.21
2022-12-04T19:10:10.311Z,3.16
2022-12-04T19:12:39.673Z,3.13
2022-12-04T19:15:08.609Z,3.08
2022-12-04T19:17:37.076Z,3.04
2022-12-04T19:20:05.764Z,3.06
2022-12-04T19:22:35.683Z,3.06
2022-12-04T19:25:04.608Z,3.03
2022-12-04T19:27:33.271Z,3.01
2022-12-04T19:30:01.751Z,3.02
2022-12-04T19:32:31.815Z,3.02
2022-12-04T19:35:00.617Z,3.03
2022-12-04T19:37:29.548Z,3.05
2022-12-04T19:39:59.543Z,3.04
2022-12-04T19:42:31.002Z,3.03
2022-12-04T19:44:59.107Z,3.04
2022-12-04T19:47:27.400Z,3.05
2022-12-04T19:49:56.095Z,3.02
2022-12-04T19:52:24.445Z,3.04
2022-12-04T19:54:52.598Z,3.02
2022-12-04T19:57:22.345Z,3.02
2022-12-04T19:59:50.589Z,3.01
2022-12-04T20:02:19.800Z,3.01
2022-12-04T20:04:48.211Z,3.01
2022-12-04T20:07:16.752Z,3.01
2022-12-04T20:09:52.123Z,3.00
2022-12-04T20:12:22.363Z,3.00
2022-12-04T20:14:50.578Z,3.00
2022-12-04T20:17:19.159Z,3.06
2022-12-04T20:19:47.680Z,3.07
2022-12-04T20:22:15.993Z,3.02
2022-12-04T20:24:44.487Z,3.06
2022-12-04T20:27:13.271Z,3.10
2022-12-04T20:29:43.604Z,3.12
2022-12-04T20:32:12.354Z,3.09
2022-12-04T20:34:43.761Z,3.07
2022-12-04T20:37:12.292Z,3.09
2022-12-04T20:39:40.471Z,3.10
2022-12-04T20:42:08.917Z,3.10
2022-12-04T20:44:37.093Z,3.09
2022-12-04T20:47:07.023Z,3.09
2022-12-04T20:49:35.382Z,3.08
2022-12-04T20:52:03.640Z,3.10
2022-12-04T20:54:34.351Z,3.09
2022-12-04T20:57:07.892Z,3.15
2022-12-04T20:59:36.135Z,3.15
2022-12-04T21:02:04.332Z,3.16
2022-12-04T21:04:36.836Z,3.17
2022-12-04T21:07:05.042Z,3.19
2022-12-04T21:09:33.492Z,3.19
2022-12-04T21:12:01.647Z,3.19
2022-12-04T21:14:48.629Z,3.21
2022-12-04T21:17:18.846Z,3.21
2022-12-04T21:19:50.248Z,3.22
2022-12-04T21:22:19.582Z,3.25
2022-12-04T21:24:47.862Z,3.23
2022-12-04T21:27:20.967Z,3.21
2022-12-04T21:29:50.192Z,3.23
2022-12-04T21:32:18.798Z,3.23
2022-12-04T21:34:48.198Z,3.22
2022-12-04T21:37:16.771Z,3.21
2022-12-04T21:39:45.436Z,3.21
2022-12-04T21:42:32.046Z,3.23
2022-12-04T21:45:00.511Z,3.22
2022-12-04T21:47:28.932Z,3.27
2022-12-04T21:49:58.940Z,3.29
2022-12-04T21:52:27.622Z,3.29
2022-12-04T21:54:56.553Z,3.31
2022-12-04T21:57:25.412Z,3.33
2022-12-04T21:59:53.581Z,3.33
2022-12-04T22:02:21.945Z,3.34
2022-12-04T22:04:50.262Z,3.34
2022-12-04T22:07:20.092Z,3.32
2022-12-04T22:09:48.262Z,3.30
2022-12-04T22:15:05.243Z,3.32
2022-12-04T22:17:33.445Z,3.33
2022-12-04T22:20:01.739Z,3.35
2022-12-04T22:22:31.277Z,3.36
2022-12-04T22:25:01.458Z,3.36
2022-12-04T22:27:30.736Z,3.38
2022-12-04T22:29:59.169Z,3.37
2022-12-04T22:32:27.509Z,3.39
2022-12-04T22:34:55.799Z,3.40
2022-12-04T22:37:24.696Z,3.42
2022-12-04T22:39:54.268Z,3.43
2022-12-04T22:42:22.808Z,3.44
2022-12-04T22:44:51.334Z,3.45
2022-12-04T22:47:19.367Z,3.47
2022-12-04T22:49:47.703Z,3.49
2022-12-04T22:52:16.528Z,3.49
2022-12-04T22:54:45.210Z,3.52
2022-12-04T22:57:15.122Z,3.50
2022-12-04T22:59:43.861Z,3.46
2022-12-04T23:02:12.582Z,3.45
2022-12-04T23:04:41.546Z,3.45
2022-12-04T23:07:10.419Z,3.46
2022-12-04T23:09:39.288Z,3.48
2022-12-04T23:12:08.239Z,3.50
2022-12-04T23:14:38.005Z,3.46
2022-12-04T23:17:06.402Z,3.42
2022-12-04T23:19:35.156Z,3.41
2022-12-04T23:22:03.839Z,3.39
2022-12-04T23:24:33.442Z,3.36
2022-12-04T23:27:02.765Z,3.38
2022-12-04T23:32:22.223Z,3.28
2022-12-04T23:34:53.326Z,3.24
2022-12-04T23:37:21.692Z,3.27
2022-12-04T23:39:51.107Z,3.27
2022-12-04T23:42:19.150Z,3.24
2022-12-04T23:44:47.535Z,3.21
2022-12-04T23:47:16.381Z,3.16
2022-12-04T23:49:46.193Z,3.18
2022-12-04T23:52:14.612Z,3.08
2022-12-04T23:54:43.004Z,3.04
2022-12-04T23:57:11.704Z,3.03
2022-12-04T23:59:41.210Z,3.02
